createdAt,value
2018-05-06T00:01:27.887Z,3.80
2018-05-06T00:03:55.336Z,3.92
2018-05-06T00:23:38.696Z,4.57
2018-05-06T00:26:06.154Z,4.57
2018-05-06T00:28:33.591Z,4.18
2018-05-06T00:31:01.044Z,4.10
2018-05-06T00:33:28.478Z,4.37
2018-05-06T00:35:55.927Z,3.95
2018-05-06T00:38:23.381Z,4.60
2018-05-06T00:40:50.837Z,4.30
2018-05-06T00:43:18.294Z,4.47
2018-05-06T00:45:45.760Z,4.57
2018-05-06T00:48:13.208Z,4.22
2018-05-06T00:50:41.425Z,3.78
2018-05-06T00:53:08.876Z,4.62
2018-05-06T00:55:36.368Z,4.12
2018-05-06T00:58:03.845Z,4.18
2018-05-06T01:00:31.312Z,4.57
2018-05-06T01:02:58.753Z,4.32
2018-05-06T01:05:26.211Z,4.20
2018-05-06T01:07:53.659Z,4.28
2018-05-06T01:10:21.097Z,3.90
2018-05-06T01:12:48.541Z,4.40
2018-05-06T01:15:15.995Z,4.37
2018-05-06T01:17:43.441Z,4.12
2018-05-06T01:20:10.913Z,4.30
2018-05-06T01:22:38.371Z,4.62
2018-05-06T01:25:05.844Z,4.65
2018-05-06T01:27:33.289Z,4.28
2018-05-06T01:30:00.743Z,4.18
2018-05-06T01:32:28.202Z,3.97
2018-05-06T01:34:55.656Z,4.57
2018-05-06T01:54:40.801Z,4.35
2018-05-06T01:57:08.253Z,4.32
2018-05-06T01:59:35.696Z,4.35
2018-05-06T02:02:03.140Z,4.37
2018-05-06T02:04:30.584Z,4.75
2018-05-06T02:06:58.036Z,5.03
2018-05-06T02:09:25.480Z,3.90
2018-05-06T02:11:52.952Z,4.50
2018-05-06T02:14:20.400Z,4.40
2018-05-06T02:16:47.861Z,4.57
2018-05-06T02:19:15.296Z,4.65
2018-05-06T02:21:42.773Z,5.20
2018-05-06T02:24:10.197Z,4.30
2018-05-06T02:26:37.653Z,4.72
2018-05-06T02:29:05.152Z,4.78
2018-05-06T02:31:32.601Z,5.10
2018-05-06T02:34:00.033Z,4.43
2018-05-06T02:36:27.483Z,5.00
2018-05-06T02:38:54.925Z,4.55
2018-05-06T02:41:22.387Z,4.90
2018-05-06T02:43:49.816Z,4.75
2018-05-06T02:46:17.282Z,5.10
2018-05-06T02:48:44.702Z,4.53
2018-05-06T02:51:12.153Z,4.47
2018-05-06T02:53:39.588Z,4.75
2018-05-06T03:13:23.329Z,4.72
2018-05-06T03:15:50.765Z,4.93
2018-05-06T03:18:18.227Z,4.87
2018-05-06T03:20:45.670Z,4.15
2018-05-06T03:23:13.126Z,4.95
2018-05-06T03:25:40.565Z,4.32
2018-05-06T03:28:08.018Z,4.55
2018-05-06T03:30:35.468Z,5.18
2018-05-06T03:33:02.966Z,4.28
2018-05-06T03:35:30.412Z,4.95
2018-05-06T03:37:57.862Z,4.47
2018-05-06T03:40:25.304Z,4.57
2018-05-06T03:42:52.755Z,4.45
2018-05-06T03:45:20.214Z,4.82
2018-05-06T03:47:47.665Z,4.68
2018-05-06T03:50:15.106Z,4.93
2018-05-06T03:52:42.558Z,4.62
2018-05-06T03:55:09.999Z,4.60
2018-05-06T03:57:49.119Z,4.90
2018-05-06T04:00:28.432Z,4.25
2018-05-06T04:02:55.825Z,4.95
2018-05-06T04:05:23.290Z,4.35
2018-05-06T04:07:50.739Z,4.90
2018-05-06T04:10:18.179Z,5.00
2018-05-06T04:12:45.640Z,4.65
2018-05-06T04:15:13.087Z,4.90
2018-05-06T04:17:40.535Z,4.75
2018-05-06T04:20:08.011Z,4.45
2018-05-06T04:22:35.447Z,4.95
2018-05-06T04:25:02.917Z,5.00
2018-05-06T04:27:30.375Z,4.65
2018-05-06T04:29:57.826Z,4.78
2018-05-06T04:32:25.273Z,4.90
2018-05-06T04:34:52.724Z,5.22
2018-05-06T04:37:20.159Z,5.22
2018-05-06T04:39:47.626Z,4.78
2018-05-06T04:42:15.069Z,4.47
2018-05-06T04:44:42.553Z,4.53
2018-05-06T04:47:09.974Z,5.00
2018-05-06T04:49:37.424Z,5.15
2018-05-06T04:52:04.872Z,4.82
2018-05-06T04:54:32.327Z,5.32
2018-05-06T04:56:59.762Z,5.07
2018-05-06T04:59:27.221Z,4.70
2018-05-06T05:01:54.691Z,4.62
2018-05-06T05:04:22.192Z,4.53
2018-05-06T05:06:49.609Z,5.60
2018-05-06T05:09:17.077Z,4.60
2018-05-06T05:11:44.505Z,4.78
2018-05-06T05:14:11.952Z,5.10
2018-05-06T05:16:39.395Z,4.70
2018-05-06T05:19:06.846Z,4.70
2018-05-06T05:21:34.295Z,4.57
2018-05-06T05:24:01.729Z,4.75
2018-05-06T05:26:29.167Z,4.60
2018-05-06T05:28:56.619Z,5.03
2018-05-06T05:31:24.119Z,5.53
2018-05-06T05:33:51.552Z,4.62
2018-05-06T05:36:19.000Z,4.30
2018-05-06T05:38:46.436Z,4.90
2018-05-06T05:41:13.889Z,4.53
2018-05-06T05:43:41.360Z,5.20
2018-05-06T05:46:08.808Z,5.07
2018-05-06T05:48:36.248Z,4.80
2018-05-06T05:51:03.706Z,5.10
2018-05-06T05:53:31.151Z,4.53
2018-05-06T05:55:58.603Z,4.75
2018-05-06T05:58:26.036Z,4.65
2018-05-06T06:00:53.484Z,4.90
2018-05-06T06:03:20.925Z,4.80
2018-05-06T06:05:48.364Z,4.70
2018-05-06T06:08:15.820Z,4.82
2018-05-06T06:27:59.261Z,5.22
2018-05-06T06:30:26.717Z,4.50
2018-05-06T06:32:54.201Z,5.10
2018-05-06T06:35:21.612Z,5.22
2018-05-06T06:37:49.048Z,5.00
2018-05-06T06:40:16.504Z,4.87
2018-05-06T06:42:43.941Z,5.07
2018-05-06T06:45:11.395Z,5.25
2018-05-06T06:47:38.853Z,4.95
2018-05-06T06:50:06.297Z,5.50
2018-05-06T06:52:34.104Z,5.53
2018-05-06T06:55:01.813Z,4.95
2018-05-06T06:57:29.237Z,5.22
2018-05-06T06:59:56.683Z,4.60
2018-05-06T07:02:24.123Z,5.32
2018-05-06T07:04:51.592Z,4.93
2018-05-06T07:07:19.015Z,4.70
2018-05-06T07:09:46.456Z,5.50
2018-05-06T07:12:14.708Z,5.53
2018-05-06T07:14:42.143Z,5.37
2018-05-06T07:17:09.578Z,5.35
2018-05-06T07:19:37.108Z,5.15
2018-05-06T07:22:04.576Z,4.80
2018-05-06T07:24:32.017Z,5.10
2018-05-06T07:27:00.161Z,5.12
2018-05-06T07:29:27.580Z,5.35
2018-05-06T07:31:55.036Z,5.12
2018-05-06T07:34:22.481Z,5.18
2018-05-06T07:36:49.940Z,5.30
2018-05-06T07:39:17.384Z,5.05
2018-05-06T07:41:44.836Z,4.85
2018-05-06T07:44:12.323Z,5.12
2018-05-06T08:03:56.607Z,4.87
2018-05-06T08:06:24.091Z,4.50
2018-05-06T08:08:51.583Z,5.03
2018-05-06T08:11:19.015Z,4.80
2018-05-06T08:13:46.466Z,5.22
2018-05-06T08:16:14.017Z,5.10
2018-05-06T08:18:41.360Z,5.03
2018-05-06T08:21:08.819Z,4.72
2018-05-06T08:23:37.175Z,4.80
2018-05-06T08:26:04.631Z,5.18
2018-05-06T08:28:32.076Z,5.20
2018-05-06T08:30:59.545Z,5.00
2018-05-06T08:33:26.992Z,5.35
2018-05-06T08:35:54.488Z,5.18
2018-05-06T08:38:21.956Z,4.75
2018-05-06T08:40:49.423Z,5.18
2018-05-06T08:43:16.883Z,5.25
2018-05-06T08:45:44.399Z,4.90
2018-05-06T08:48:11.776Z,4.75
2018-05-06T08:50:39.223Z,5.12
2018-05-06T08:53:06.655Z,5.10
2018-05-06T08:55:34.313Z,5.25
2018-05-06T08:58:01.777Z,4.70
2018-05-06T09:00:29.209Z,4.47
2018-05-06T09:02:56.652Z,4.75
2018-05-06T09:05:24.137Z,5.12
2018-05-06T09:07:51.612Z,4.57
2018-05-06T09:10:19.056Z,5.10
2018-05-06T09:12:46.541Z,5.15
2018-05-06T09:15:13.982Z,5.10
2018-05-06T09:17:41.427Z,4.60
2018-05-06T09:20:08.893Z,5.18
2018-05-06T09:22:36.364Z,4.93
2018-05-06T09:25:03.811Z,5.00
2018-05-06T09:27:31.279Z,5.05
2018-05-06T09:29:58.749Z,5.05
2018-05-06T09:32:26.266Z,4.70
2018-05-06T09:34:53.657Z,4.40
2018-05-06T09:37:21.154Z,4.65
2018-05-06T09:39:48.623Z,4.53
2018-05-06T09:42:16.071Z,4.12
2018-05-06T09:44:43.519Z,4.65
2018-05-06T09:47:10.983Z,4.37
2018-05-06T09:49:38.423Z,4.55
2018-05-06T09:52:05.885Z,4.40
2018-05-06T09:54:33.320Z,4.20
2018-05-06T09:57:00.784Z,4.00
2018-05-06T09:59:28.215Z,4.43
2018-05-06T10:01:55.836Z,4.40
2018-05-06T10:21:40.168Z,4.30
2018-05-06T10:24:07.627Z,4.28
2018-05-06T10:26:35.079Z,4.00
2018-05-06T10:29:04.527Z,3.72
2018-05-06T10:31:32.847Z,4.20
2018-05-06T10:34:00.317Z,3.75
2018-05-06T10:36:27.774Z,3.90
2018-05-06T10:38:55.233Z,4.22
2018-05-06T10:41:22.683Z,3.87
2018-05-06T10:43:50.132Z,3.75
2018-05-06T10:46:17.584Z,4.12
2018-05-06T10:48:45.050Z,3.58
2018-05-06T10:51:12.499Z,3.78
2018-05-06T10:53:39.986Z,3.75
2018-05-06T10:56:07.463Z,4.32
2018-05-06T10:58:34.895Z,3.70
2018-05-06T11:01:02.349Z,4.28
2018-05-06T11:03:29.795Z,3.87
2018-05-06T11:05:57.251Z,4.20
2018-05-06T11:08:24.724Z,3.75
2018-05-06T11:10:52.160Z,4.28
2018-05-06T11:13:19.706Z,7.20
2018-05-06T11:15:47.145Z,3.72
2018-05-06T11:35:34.126Z,3.87
2018-05-06T11:38:01.584Z,3.87
2018-05-06T11:40:29.028Z,4.05
2018-05-06T11:42:56.488Z,4.22
2018-05-06T11:45:23.931Z,3.65
2018-05-06T11:47:51.381Z,3.78
2018-05-06T11:50:18.848Z,3.78
2018-05-06T11:52:46.285Z,3.80
2018-05-06T11:55:13.727Z,3.50
2018-05-06T11:57:41.163Z,3.90
2018-05-06T12:00:08.648Z,3.70
2018-05-06T12:02:36.079Z,3.50
2018-05-06T12:05:03.547Z,3.80
2018-05-06T12:07:31.004Z,3.65
2018-05-06T12:09:58.525Z,3.62
2018-05-06T12:12:25.909Z,3.80
2018-05-06T12:14:53.389Z,4.25
2018-05-06T12:17:20.842Z,3.85
2018-05-06T12:19:48.303Z,3.70
2018-05-06T12:22:15.746Z,3.37
2018-05-06T12:24:43.187Z,4.25
2018-05-06T12:44:26.064Z,3.50
2018-05-06T12:46:53.505Z,3.90
2018-05-06T12:49:20.992Z,4.00
2018-05-06T12:51:48.399Z,3.37
2018-05-06T12:54:15.850Z,4.18
2018-05-06T13:13:58.791Z,3.70
2018-05-06T13:16:26.260Z,3.87
2018-05-06T13:18:53.696Z,3.40
2018-05-06T13:21:21.150Z,3.87
2018-05-06T13:23:48.934Z,3.87
2018-05-06T13:26:16.416Z,3.70
2018-05-06T13:28:43.853Z,3.90
2018-05-06T13:31:11.306Z,3.75
2018-05-06T13:33:38.757Z,3.70
2018-05-06T13:36:06.229Z,3.90
2018-05-06T13:38:33.722Z,3.90
2018-05-06T13:41:01.168Z,3.60
2018-05-06T13:43:28.698Z,3.40
2018-05-06T13:45:56.113Z,3.90
2018-05-06T13:48:23.578Z,3.80
2018-05-06T13:50:51.007Z,3.53
2018-05-06T13:53:18.472Z,3.30
2018-05-06T13:55:45.932Z,3.37
2018-05-06T13:58:13.389Z,3.33
2018-05-06T14:00:40.836Z,3.12
2018-05-06T14:03:08.276Z,3.47
2018-05-06T14:05:35.765Z,3.40
2018-05-06T14:08:03.224Z,3.72
2018-05-06T14:10:30.665Z,3.65
2018-05-06T14:12:58.146Z,3.28
2018-05-06T14:15:25.603Z,3.90
2018-05-06T14:17:53.082Z,3.42
2018-05-06T14:20:20.519Z,3.17
2018-05-06T14:22:47.983Z,3.10
2018-05-06T14:25:15.413Z,3.28
2018-05-06T14:27:42.896Z,3.70
2018-05-06T14:33:00.804Z,3.10
2018-05-06T14:35:28.245Z,3.45
2018-05-06T14:37:55.698Z,3.83
2018-05-06T14:40:23.141Z,2.92
2018-05-06T14:42:50.598Z,3.60
2018-05-06T14:45:26.044Z,2.95
2018-05-06T14:48:05.178Z,2.65
2018-05-06T14:50:32.616Z,3.10
2018-05-06T14:53:00.078Z,3.30
2018-05-06T14:55:27.505Z,3.12
2018-05-06T14:57:55.087Z,3.05
2018-05-06T15:00:22.521Z,3.12
2018-05-06T15:02:49.973Z,2.95
2018-05-06T15:05:17.449Z,2.90
2018-05-06T15:25:01.265Z,3.12
2018-05-06T15:44:44.751Z,3.12
2018-05-06T16:04:28.404Z,3.17
2018-05-06T16:06:55.871Z,3.10
2018-05-06T16:09:23.335Z,2.67
2018-05-06T16:11:50.779Z,2.50
2018-05-06T16:14:18.241Z,2.45
2018-05-06T16:16:45.704Z,3.05
2018-05-06T16:19:13.151Z,2.42
2018-05-06T16:21:40.600Z,2.80
2018-05-06T16:24:08.091Z,2.60
2018-05-06T16:26:35.573Z,2.40
2018-05-06T16:29:02.984Z,2.92
2018-05-06T16:31:30.750Z,2.58
2018-05-06T16:33:58.221Z,2.67
2018-05-06T16:36:25.948Z,2.40
2018-05-06T16:38:56.732Z,3.10
2018-05-06T16:41:24.298Z,2.50
2018-05-06T16:43:51.747Z,2.53
2018-05-06T16:46:19.380Z,2.30
2018-05-06T16:48:46.825Z,2.30
2018-05-06T16:51:22.965Z,2.30
2018-05-06T16:53:50.419Z,1.98
2018-05-06T16:56:17.942Z,2.00
2018-05-06T16:58:45.393Z,2.50
2018-05-06T17:01:12.947Z,2.30
2018-05-06T17:03:40.385Z,1.92
2018-05-06T17:06:07.836Z,1.70
2018-05-06T17:08:35.459Z,2.05
2018-05-06T17:28:19.429Z,1.98
2018-05-06T17:30:46.900Z,6.45
2018-05-06T17:33:14.361Z,1.85
2018-05-06T17:35:41.812Z,2.20
2018-05-06T17:38:09.998Z,2.60
2018-05-06T17:40:37.459Z,2.22
2018-05-06T17:43:04.916Z,2.12
2018-05-06T17:45:32.359Z,2.30
2018-05-06T17:47:59.813Z,1.77
2018-05-06T17:50:28.127Z,1.87
2018-05-06T17:52:55.804Z,2.10
2018-05-06T17:55:23.226Z,1.80
2018-05-06T18:15:10.054Z,1.83
2018-05-06T18:17:37.495Z,2.17
2018-05-06T18:37:22.129Z,1.65
2018-05-06T18:39:49.585Z,2.00
2018-05-06T18:59:35.460Z,1.60
2018-05-06T19:02:02.936Z,1.50
2018-05-06T19:04:30.419Z,1.70
2018-05-06T19:24:14.724Z,1.80
2018-05-06T19:26:42.244Z,1.50
2018-05-06T19:29:11.866Z,1.67
2018-05-06T19:31:39.292Z,1.50
2018-05-06T19:34:06.761Z,1.42
2018-05-06T19:36:34.231Z,1.67
2018-05-06T19:39:01.693Z,1.50
2018-05-06T19:41:29.156Z,1.45
2018-05-06T19:43:56.634Z,1.75
2018-05-06T19:46:24.137Z,1.90
2018-05-06T19:48:51.606Z,1.80
2018-05-06T19:51:19.057Z,1.52
2018-05-06T20:11:04.062Z,1.50
2018-05-06T20:13:31.534Z,1.65
2018-05-06T20:15:58.966Z,1.67
2018-05-06T20:18:26.471Z,1.83
2018-05-06T20:20:53.920Z,1.50
2018-05-06T20:23:21.389Z,1.58
2018-05-06T20:43:07.062Z,1.70
2018-05-06T20:45:34.526Z,1.55
2018-05-06T20:48:02.024Z,1.92
2018-05-06T20:50:29.496Z,1.67
2018-05-06T20:52:56.973Z,1.50
2018-05-06T20:55:24.436Z,1.62
2018-05-06T20:57:51.894Z,1.60
2018-05-06T21:00:19.353Z,1.55
2018-05-06T21:02:46.814Z,1.60
2018-05-06T21:05:14.297Z,1.85
2018-05-06T21:07:41.710Z,1.70
2018-05-06T21:10:09.189Z,1.98
2018-05-06T21:29:53.982Z,1.90
2018-05-06T21:32:21.442Z,1.70
2018-05-06T21:34:48.908Z,1.90
2018-05-06T21:37:16.370Z,1.90
2018-05-06T21:39:43.839Z,1.50
2018-05-06T21:42:11.255Z,1.85
2018-05-06T21:44:38.718Z,1.60
2018-05-06T21:47:06.192Z,1.40
2018-05-06T21:49:33.638Z,2.10
2018-05-06T22:09:16.996Z,1.87
2018-05-06T22:11:44.442Z,1.95
2018-05-06T22:14:11.900Z,1.90
2018-05-06T22:16:39.358Z,1.98
2018-05-06T22:19:06.817Z,2.05
2018-05-06T22:21:34.293Z,1.75
2018-05-06T22:24:01.730Z,2.00
2018-05-06T22:26:29.212Z,2.10
2018-05-06T22:28:56.663Z,2.28
2018-05-06T22:31:24.123Z,1.98
2018-05-06T22:33:51.563Z,1.75
2018-05-06T22:36:19.037Z,1.92
2018-05-06T22:38:46.480Z,2.00
2018-05-06T22:41:13.925Z,1.80
2018-05-06T22:43:41.362Z,2.00
2018-05-06T22:46:08.855Z,1.98
2018-05-06T22:48:36.336Z,2.00
2018-05-06T22:51:03.841Z,2.25
2018-05-06T23:10:45.992Z,1.67
2018-05-06T23:13:13.433Z,2.20
2018-05-06T23:15:40.887Z,1.90
2018-05-06T23:18:08.341Z,2.40
2018-05-06T23:20:35.817Z,1.75
2018-05-06T23:23:03.266Z,1.80
2018-05-06T23:25:30.732Z,2.15
2018-05-06T23:27:58.956Z,1.90
2018-05-06T23:30:26.410Z,1.67
2018-05-06T23:50:10.435Z,2.42
2018-05-06T23:52:37.891Z,2.35
2018-05-06T23:55:05.317Z,1.92
2018-05-06T23:57:32.769Z,2.00
